Etusivu
METAR-TAF:

METAR-TAF

Lentoasemat :

Kansas Cityn kansainvälinen lentoasema

Kansas City, Missouri, Yhdysvallat

Leveyspiiri: 39-17-50N, Pituuspiiri: 094-43-50W, korkeus merenpinnasta: 312 m

Tämänhetkinen sää

Tämä raportti tehtiin 37 minuuttia sitten, kello 22.53 UTC
Tuuli 8 kn etelästä/lounaasta
Lämpötila 4°C
Kosteus 60%
Ilmanpaine 1024 hPa
Näkyvyys: 16.1 km
selkeää

METAR: KMCI 202253Z 21008KT 10SM CLR 04/M03 A3023 RMK AO2 SLP246 T00441028

Aika: 17:30 (23:30 UTC)

Sääennuste

Tämä raportti tehtiin 6 tuntia ja 10 minuuttia sitten, kello 17.20 UTC
Ennuste voimassa 20. päivästä klo 18 UTC - 21. päivään klo 18 UTC
Tuuli 8 kn etelästä/lounaasta
Näkyvyys: 10 km
Muutamia pilviä 25000 ft:n korkeudessa

TAF: KMCI 201720Z 2018/2118 21008KT P6SM FEW250

Säähavainnot ja -ennusteet yli 4000 lentoasemalta (METAR- ja TAF-raportit).

Käytössä olevat sääasemat on merkitty karttaan keltaisilla ja punaisilla pisteillä.

Aseta hiiri pisteen päälle nähdäksesi sääaseman nimen.

Klikkaa sitten nähdäksesi säähavainnot ja -ennusteet.

Kartan vaihtaminen: klikkaa mustalla rastilla varustettuja vihreitä pisteitä, niin voit zoomata sisään; viivalla varustettua vihreää pistettä, niin voit zoomata ulos tai vihreitä nuolia, niin pääset viereisille kartoille.


METAR-TAF: